sensor_id;sensor_type;location;lat;lon;timestamp;pressure;altitude;pressure_sealevel;temperature;humidity
4576;BME280;2300;51.874;8.430;2023-02-14T00:00:30;102751.94;;;1.30;100.00
4576;BME280;2300;51.874;8.430;2023-02-14T00:02:56;102752.78;;;1.31;100.00
4576;BME280;2300;51.874;8.430;2023-02-14T00:05:23;102752.19;;;1.27;100.00
4576;BME280;2300;51.874;8.430;2023-02-14T00:07:50;102759.69;;;1.24;100.00
4576;BME280;2300;51.874;8.430;2023-02-14T00:10:16;102748.38;;;1.19;100.00
4576;BME280;2300;51.874;8.430;2023-02-14T00:12:43;102741.72;;;1.12;100.00
4576;BME280;2300;51.874;8.430;2023-02-14T00:15:10;102755.50;;;1.20;100.00
4576;BME280;2300;51.874;8.430;2023-02-14T00:17:49;102761.78;;;1.20;100.00
4576;BME280;2300;51.874;8.430;2023-02-14T00:20:16;102750.34;;;1.17;100.00
4576;BME280;2300;51.874;8.430;2023-02-14T00:22:43;102750.22;;;1.18;100.00
4576;BME280;2300;51.874;8.430;2023-02-14T00:25:09;102756.13;;;1.23;100.00
4576;BME280;2300;51.874;8.430;2023-02-14T00:27:36;102754.28;;;1.13;100.00
4576;BME280;2300;51.874;8.430;2023-02-14T00:30:03;102759.56;;;1.03;100.00
4576;BME280;2300;51.874;8.430;2023-02-14T00:32:30;102760.66;;;1.00;100.00
4576;BME280;2300;51.874;8.430;2023-02-14T00:34:59;102755.22;;;0.89;100.00
4576;BME280;2300;51.874;8.430;2023-02-14T00:37:25;102755.97;;;0.91;100.00
4576;BME280;2300;51.874;8.430;2023-02-14T00:39:52;102755.34;;;0.88;100.00
4576;BME280;2300;51.874;8.430;2023-02-14T00:42:19;102760.25;;;0.83;100.00
4576;BME280;2300;51.874;8.430;2023-02-14T00:44:45;102764.53;;;0.74;100.00
4576;BME280;2300;51.874;8.430;2023-02-14T00:47:12;102761.09;;;0.72;100.00
4576;BME280;2300;51.874;8.430;2023-02-14T00:49:38;102758.59;;;0.69;100.00
4576;BME280;2300;51.874;8.430;2023-02-14T00:52:06;102756.41;;;0.74;100.00
4576;BME280;2300;51.874;8.430;2023-02-14T00:54:32;102765.78;;;0.81;100.00
4576;BME280;2300;51.874;8.430;2023-02-14T00:56:59;102771.41;;;0.78;100.00
4576;BME280;2300;51.874;8.430;2023-02-14T00:59:25;102754.44;;;0.65;100.00
4576;BME280;2300;51.874;8.430;2023-02-14T01:01:52;102763.03;;;0.70;100.00
4576;BME280;2300;51.874;8.430;2023-02-14T01:04:18;102764.84;;;0.58;100.00
4576;BME280;2300;51.874;8.430;2023-02-14T01:06:45;102777.63;;;0.56;100.00
4576;BME280;2300;51.874;8.430;2023-02-14T01:09:12;102769.63;;;0.55;100.00
4576;BME280;2300;51.874;8.430;2023-02-14T01:11:39;102778.72;;;0.54;100.00
4576;BME280;2300;51.874;8.430;2023-02-14T01:14:06;102781.88;;;0.48;100.00
4576;BME280;2300;51.874;8.430;2023-02-14T01:16:32;102781.38;;;0.43;100.00
4576;BME280;2300;51.874;8.430;2023-02-14T01:18:59;102775.09;;;0.42;100.00
4576;BME280;2300;51.874;8.430;2023-02-14T01:21:27;102765.63;;;0.37;100.00
4576;BME280;2300;51.874;8.430;2023-02-14T01:23:56;102785.81;;;0.44;100.00
4576;BME280;2300;51.874;8.430;2023-02-14T01:26:25;102760.69;;;0.31;100.00
4576;BME280;2300;51.874;8.430;2023-02-14T01:28:52;102775.59;;;0.36;100.00
4576;BME280;2300;51.874;8.430;2023-02-14T01:31:20;102785.31;;;0.39;100.00
4576;BME280;2300;51.874;8.430;2023-02-14T01:33:48;102772.53;;;0.41;100.00
4576;BME280;2300;51.874;8.430;2023-02-14T01:36:17;102770.19;;;0.36;100.00
4576;BME280;2300;51.874;8.430;2023-02-14T01:38:43;102775.59;;;0.36;100.00
4576;BME280;2300;51.874;8.430;2023-02-14T01:41:10;102769.31;;;0.36;100.00
4576;BME280;2300;51.874;8.430;2023-02-14T01:43:53;102776.22;;;0.40;100.00
4576;BME280;2300;51.874;8.430;2023-02-14T01:46:20;102774.44;;;0.28;100.00
4576;BME280;2300;51.874;8.430;2023-02-14T01:48:48;102774.31;;;0.29;100.00
4576;BME280;2300;51.874;8.430;2023-02-14T01:51:15;102774.78;;;0.23;100.00
4576;BME280;2300;51.874;8.430;2023-02-14T01:53:43;102783.66;;;0.25;100.00
4576;BME280;2300;51.874;8.430;2023-02-14T01:56:12;102770.00;;;0.27;100.00
4576;BME280;2300;51.874;8.430;2023-02-14T01:58:41;102768.06;;;0.29;100.00
4576;BME280;2300;51.874;8.430;2023-02-14T02:01:11;102776.25;;;0.27;100.00
4576;BME280;2300;51.874;8.430;2023-02-14T02:03:43;102769.16;;;0.26;100.00
4576;BME280;2300;51.874;8.430;2023-02-14T02:06:14;102766.78;;;0.21;100.00
4576;BME280;2300;51.874;8.430;2023-02-14T02:08:47;102761.25;;;0.23;100.00
4576;BME280;2300;51.874;8.430;2023-02-14T02:11:15;102764.31;;;0.18;100.00
4576;BME280;2300;51.874;8.430;2023-02-14T02:13:42;102755.59;;;0.15;100.00
4576;BME280;2300;51.874;8.430;2023-02-14T02:16:21;102756.22;;;0.18;99.84
4576;BME280;2300;51.874;8.430;2023-02-14T02:18:57;102758.97;;;0.06;99.52
4576;BME280;2300;51.874;8.430;2023-02-14T02:21:53;102757.13;;;0.06;99.80
4576;BME280;2300;51.874;8.430;2023-02-14T02:24:31;102751.00;;;0.04;100.00
4576;BME280;2300;51.874;8.430;2023-02-14T02:27:18;102754.31;;;0.08;99.72
4576;BME280;2300;51.874;8.430;2023-02-14T02:35:55;102741.72;;;0.19;100.00
4576;BME280;2300;51.874;8.430;2023-02-14T02:38:46;102740.88;;;0.19;100.00
4576;BME280;2300;51.874;8.430;2023-02-14T02:41:22;102736.53;;;0.16;100.00
4576;BME280;2300;51.874;8.430;2023-02-14T02:43:57;102731.63;;;0.10;100.00
4576;BME280;2300;51.874;8.430;2023-02-14T02:46:34;102728.41;;;0.05;100.00
4576;BME280;2300;51.874;8.430;2023-02-14T02:49:22;102725.91;;;0.02;100.00
4576;BME280;2300;51.874;8.430;2023-02-14T02:52:14;102727.75;;;0.02;100.00
4576;BME280;2300;51.874;8.430;2023-02-14T02:55:05;102722.34;;;0.02;100.00
4576;BME280;2300;51.874;8.430;2023-02-14T02:57:37;102716.59;;;0.06;100.00
4576;BME280;2300;51.874;8.430;2023-02-14T03:00:06;102719.28;;;0.06;100.00
4576;BME280;2300;51.874;8.430;2023-02-14T03:02:36;102719.28;;;0.06;100.00
4576;BME280;2300;51.874;8.430;2023-02-14T03:05:24;102708.28;;;0.09;100.00
4576;BME280;2300;51.874;8.430;2023-02-14T03:07:52;102708.72;;;0.03;100.00
4576;BME280;2300;51.874;8.430;2023-02-14T03:10:20;102704.69;;;0.09;100.00
4576;BME280;2300;51.874;8.430;2023-02-14T03:13:13;102707.56;;;0.18;100.00
4576;BME280;2300;51.874;8.430;2023-02-14T03:18:56;102710.22;;;0.07;100.00
4576;BME280;2300;51.874;8.430;2023-02-14T03:21:52;102695.72;;;0.08;100.00
4576;BME280;2300;51.874;8.430;2023-02-14T03:24:26;102703.78;;;-0.03;100.00
4576;BME280;2300;51.874;8.430;2023-02-14T03:27:00;102696.78;;;-0.05;100.00
4576;BME280;2300;51.874;8.430;2023-02-14T03:29:37;102695.16;;;-0.08;100.00
4576;BME280;2300;51.874;8.430;2023-02-14T03:32:13;102696.47;;;-0.13;100.00
4576;BME280;2300;51.874;8.430;2023-02-14T03:34:49;102689.13;;;-0.11;100.00
4576;BME280;2300;51.874;8.430;2023-02-14T03:37:22;102684.28;;;-0.19;100.00
4576;BME280;2300;51.874;8.430;2023-02-14T03:39:58;102689.50;;;-0.16;100.00
4576;BME280;2300;51.874;8.430;2023-02-14T03:42:30;102684.59;;;-0.11;100.00
4576;BME280;2300;51.874;8.430;2023-02-14T03:44:59;102677.47;;;-0.12;100.00
4576;BME280;2300;51.874;8.430;2023-02-14T03:47:30;102672.78;;;-0.10;100.00
4576;BME280;2300;51.874;8.430;2023-02-14T03:50:01;102673.78;;;-0.11;100.00
4576;BME280;2300;51.874;8.430;2023-02-14T03:52:29;102682.00;;;-0.12;100.00
4576;BME280;2300;51.874;8.430;2023-02-14T03:55:01;102678.09;;;-0.08;100.00
4576;BME280;2300;51.874;8.430;2023-02-14T03:57:31;102674.00;;;-0.14;100.00
4576;BME280;2300;51.874;8.430;2023-02-14T04:00:02;102672.53;;;-0.18;100.00
4576;BME280;2300;51.874;8.430;2023-02-14T04:02:32;102671.50;;;-0.28;100.00
4576;BME280;2300;51.874;8.430;2023-02-14T04:05:02;102651.63;;;-0.27;100.00
4576;BME280;2300;51.874;8.430;2023-02-14T04:07:43;102669.91;;;-0.19;100.00
4576;BME280;2300;51.874;8.430;2023-02-14T04:10:11;102672.97;;;-0.24;100.00
4576;BME280;2300;51.874;8.430;2023-02-14T04:12:38;102672.97;;;-0.24;100.00
4576;BME280;2300;51.874;8.430;2023-02-14T04:15:05;102665.84;;;-0.25;100.00
4576;BME280;2300;51.874;8.430;2023-02-14T04:17:32;102654.66;;;-0.32;100.00
4576;BME280;2300;51.874;8.430;2023-02-14T04:20:16;102659.66;;;-0.38;100.00
4576;BME280;2300;51.874;8.430;2023-02-14T04:22:43;102664.19;;;-0.39;100.00
4576;BME280;2300;51.874;8.430;2023-02-14T04:25:11;102657.91;;;-0.39;100.00
4576;BME280;2300;51.874;8.430;2023-02-14T04:27:38;102659.34;;;-0.46;99.99
4576;BME280;2300;51.874;8.430;2023-02-14T04:30:06;102661.53;;;-0.51;100.00
4576;BME280;2300;51.874;8.430;2023-02-14T04:32:32;102663.03;;;-0.47;100.00
4576;BME280;2300;51.874;8.430;2023-02-14T04:34:59;102651.72;;;-0.52;99.79
4576;BME280;2300;51.874;8.430;2023-02-14T04:37:25;102662.97;;;-0.58;100.00
4576;BME280;2300;51.874;8.430;2023-02-14T04:39:51;102655.59;;;-0.56;100.00
4576;BME280;2300;51.874;8.430;2023-02-14T04:42:19;102655.38;;;-0.53;100.00
4576;BME280;2300;51.874;8.430;2023-02-14T04:44:46;102658.00;;;-0.52;100.00
4576;BME280;2300;51.874;8.430;2023-02-14T04:47:13;102652.69;;;-0.53;100.00
4576;BME280;2300;51.874;8.430;2023-02-14T04:49:39;102652.06;;;-0.57;100.00
4576;BME280;2300;51.874;8.430;2023-02-14T04:52:06;102648.72;;;-0.60;100.00
4576;BME280;2300;51.874;8.430;2023-02-14T04:54:32;102645.03;;;-0.59;100.00
4576;BME280;2300;51.874;8.430;2023-02-14T04:56:59;102647.97;;;-0.62;100.00
4576;BME280;2300;51.874;8.430;2023-02-14T04:59:26;102641.56;;;-0.61;100.00
4576;BME280;2300;51.874;8.430;2023-02-14T05:01:53;102634.94;;;-0.69;99.86
4576;BME280;2300;51.874;8.430;2023-02-14T05:04:20;102642.25;;;-0.71;99.82
4576;BME280;2300;51.874;8.430;2023-02-14T05:06:46;102633.97;;;-0.68;99.47
4576;BME280;2300;51.874;8.430;2023-02-14T05:09:12;102611.25;;;-0.89;99.04
4576;BME280;2300;51.874;8.430;2023-02-14T05:11:39;102633.13;;;-0.81;99.23
4576;BME280;2300;51.874;8.430;2023-02-14T05:14:05;102639.38;;;-0.80;99.37
4576;BME280;2300;51.874;8.430;2023-02-14T05:16:34;102636.69;;;-0.80;99.07
4576;BME280;2300;51.874;8.430;2023-02-14T05:19:00;102639.47;;;-0.82;99.23
4576;BME280;2300;51.874;8.430;2023-02-14T05:21:27;102632.59;;;-0.86;99.87
4576;BME280;2300;51.874;8.430;2023-02-14T05:23:57;102634.63;;;-0.77;100.00
4576;BME280;2300;51.874;8.430;2023-02-14T05:26:23;102642.59;;;-0.75;99.78
4576;BME280;2300;51.874;8.430;2023-02-14T05:28:50;102633.13;;;-0.81;99.76
4576;BME280;2300;51.874;8.430;2023-02-14T05:31:16;102637.53;;;-0.80;99.51
4576;BME280;2300;51.874;8.430;2023-02-14T05:33:44;102631.91;;;-0.77;100.00
4576;BME280;2300;51.874;8.430;2023-02-14T05:36:10;102634.75;;;-0.78;100.00
4576;BME280;2300;51.874;8.430;2023-02-14T05:38:37;102636.25;;;-0.74;100.00
4576;BME280;2300;51.874;8.430;2023-02-14T05:41:04;102640.31;;;-0.69;100.00
4576;BME280;2300;51.874;8.430;2023-02-14T05:43:31;102636.66;;;-0.68;100.00
4576;BME280;2300;51.874;8.430;2023-02-14T05:45:57;102637.91;;;-0.60;100.00
4576;BME280;2300;51.874;8.430;2023-02-14T05:48:24;102630.56;;;-0.58;100.00
4576;BME280;2300;51.874;8.430;2023-02-14T05:50:52;102632.31;;;-0.57;100.00
4576;BME280;2300;51.874;8.430;2023-02-14T05:53:18;102636.94;;;-0.59;100.00
4576;BME280;2300;51.874;8.430;2023-02-14T05:55:45;102641.28;;;-0.57;100.00
4576;BME280;2300;51.874;8.430;2023-02-14T05:58:12;102642.22;;;-0.58;100.00
4576;BME280;2300;51.874;8.430;2023-02-14T06:00:38;102639.53;;;-0.58;100.00
4576;BME280;2300;51.874;8.430;2023-02-14T06:03:05;102646.00;;;-0.60;100.00
4576;BME280;2300;51.874;8.430;2023-02-14T06:05:32;102644.50;;;-0.52;100.00
4576;BME280;2300;51.874;8.430;2023-02-14T06:08:00;102643.91;;;-0.44;100.00
4576;BME280;2300;51.874;8.430;2023-02-14T06:10:27;102649.09;;;-0.41;100.00
4576;BME280;2300;51.874;8.430;2023-02-14T06:12:53;102650.97;;;-0.31;100.00
4576;BME280;2300;51.874;8.430;2023-02-14T06:15:20;102645.34;;;-0.28;100.00
4576;BME280;2300;51.874;8.430;2023-02-14T06:17:50;102650.00;;;-0.30;100.00
4576;BME280;2300;51.874;8.430;2023-02-14T06:20:16;102639.69;;;-0.25;100.00
4576;BME280;2300;51.874;8.430;2023-02-14T06:22:43;102649.31;;;-0.20;100.00
4576;BME280;2300;51.874;8.430;2023-02-14T06:25:11;102652.28;;;-0.12;100.00
4576;BME280;2300;51.874;8.430;2023-02-14T06:27:37;102650.00;;;-0.06;100.00
4576;BME280;2300;51.874;8.430;2023-02-14T06:30:05;102648.66;;;-0.00;100.00
4576;BME280;2300;51.874;8.430;2023-02-14T06:32:31;102658.81;;;-0.04;100.00
4576;BME280;2300;51.874;8.430;2023-02-14T06:34:57;102656.63;;;0.01;100.00
4576;BME280;2300;51.874;8.430;2023-02-14T06:37:24;102651.69;;;-0.05;100.00
4576;BME280;2300;51.874;8.430;2023-02-14T06:39:50;102649.75;;;-0.03;100.00
4576;BME280;2300;51.874;8.430;2023-02-14T06:42:18;102656.88;;;-0.02;100.00
4576;BME280;2300;51.874;8.430;2023-02-14T06:44:45;102652.44;;;-0.03;100.00
4576;BME280;2300;51.874;8.430;2023-02-14T06:47:11;102657.00;;;-0.03;100.00
4576;BME280;2300;51.874;8.430;2023-02-14T06:49:38;102652.59;;;0.07;100.00
4576;BME280;2300;51.874;8.430;2023-02-14T06:52:05;102655.81;;;0.12;100.00
4576;BME280;2300;51.874;8.430;2023-02-14T06:54:32;102657.94;;;0.19;100.00
4576;BME280;2300;51.874;8.430;2023-02-14T06:56:58;102655.09;;;0.21;100.00
4576;BME280;2300;51.874;8.430;2023-02-14T06:59:26;102662.03;;;0.25;100.00
4576;BME280;2300;51.874;8.430;2023-02-14T07:01:52;102661.16;;;0.25;100.00
4576;BME280;2300;51.874;8.430;2023-02-14T07:04:19;102659.31;;;0.25;100.00
4576;BME280;2300;51.874;8.430;2023-02-14T07:06:45;102660.75;;;0.18;100.00
4576;BME280;2300;51.874;8.430;2023-02-14T07:09:12;102658.41;;;0.13;100.00
4576;BME280;2300;51.874;8.430;2023-02-14T07:11:42;102668.25;;;0.14;100.00
4576;BME280;2300;51.874;8.430;2023-02-14T07:14:08;102666.06;;;0.19;100.00
4576;BME280;2300;51.874;8.430;2023-02-14T07:16:36;102668.63;;;0.21;100.00
4576;BME280;2300;51.874;8.430;2023-02-14T07:19:02;102666.06;;;0.19;100.00
4576;BME280;2300;51.874;8.430;2023-02-14T07:21:29;102663.59;;;0.28;100.00
4576;BME280;2300;51.874;8.430;2023-02-14T07:23:55;102661.88;;;0.27;100.00
4576;BME280;2300;51.874;8.430;2023-02-14T07:26:22;102666.41;;;0.15;100.00
4576;BME280;2300;51.874;8.430;2023-02-14T07:28:48;102663.91;;;0.12;100.00
4576;BME280;2300;51.874;8.430;2023-02-14T07:31:16;102666.16;;;0.18;100.00
4576;BME280;2300;51.874;8.430;2023-02-14T07:33:45;102669.16;;;0.26;100.00
4576;BME280;2300;51.874;8.430;2023-02-14T07:36:11;102672.22;;;0.33;100.00
4576;BME280;2300;51.874;8.430;2023-02-14T07:38:38;102662.88;;;0.37;100.00
4576;BME280;2300;51.874;8.430;2023-02-14T07:41:04;102669.81;;;0.41;100.00
4576;BME280;2300;51.874;8.430;2023-02-14T07:43:31;102662.81;;;0.49;100.00
4576;BME280;2300;51.874;8.430;2023-02-14T07:45:58;102656.31;;;0.52;100.00
4576;BME280;2300;51.874;8.430;2023-02-14T07:48:25;102655.59;;;0.61;100.00
4576;BME280;2300;51.874;8.430;2023-02-14T07:50:53;102665.41;;;0.73;100.00
4576;BME280;2300;51.874;8.430;2023-02-14T07:53:21;102664.72;;;0.82;100.00
4576;BME280;2300;51.874;8.430;2023-02-14T07:55:48;102638.38;;;0.73;100.00
4576;BME280;2300;51.874;8.430;2023-02-14T07:58:15;102656.94;;;0.89;100.00
4576;BME280;2300;51.874;8.430;2023-02-14T08:00:41;102663.00;;;0.92;100.00
4576;BME280;2300;51.874;8.430;2023-02-14T08:03:08;102667.78;;;1.00;100.00
4576;BME280;2300;51.874;8.430;2023-02-14T08:05:34;102662.75;;;1.06;100.00
4576;BME280;2300;51.874;8.430;2023-02-14T08:08:03;102663.97;;;1.14;100.00
4576;BME280;2300;51.874;8.430;2023-02-14T08:10:30;102671.84;;;1.28;100.00
4576;BME280;2300;51.874;8.430;2023-02-14T08:12:56;102665.06;;;1.33;100.00
4576;BME280;2300;51.874;8.430;2023-02-14T08:15:25;102659.25;;;1.38;100.00
4576;BME280;2300;51.874;8.430;2023-02-14T08:18:09;102668.84;;;1.53;100.00
4576;BME280;2300;51.874;8.430;2023-02-14T08:20:36;102669.06;;;1.61;100.00
4576;BME280;2300;51.874;8.430;2023-02-14T08:23:04;102666.81;;;1.66;100.00
4576;BME280;2300;51.874;8.430;2023-02-14T08:25:30;102672.59;;;1.73;100.00
4576;BME280;2300;51.874;8.430;2023-02-14T08:27:57;102671.97;;;1.80;100.00
4576;BME280;2300;51.874;8.430;2023-02-14T08:30:23;102668.22;;;1.92;100.00
4576;BME280;2300;51.874;8.430;2023-02-14T08:32:50;102659.06;;;2.05;100.00
4576;BME280;2300;51.874;8.430;2023-02-14T08:35:16;102660.47;;;2.20;100.00
4576;BME280;2300;51.874;8.430;2023-02-14T08:37:42;102665.56;;;2.34;100.00
4576;BME280;2300;51.874;8.430;2023-02-14T08:40:11;102653.53;;;2.48;100.00
4576;BME280;2300;51.874;8.430;2023-02-14T08:42:37;102658.75;;;2.60;100.00
4576;BME280;2300;51.874;8.430;2023-02-14T08:45:04;102661.16;;;2.74;100.00
4576;BME280;2300;51.874;8.430;2023-02-14T08:47:31;102648.66;;;2.93;100.00
4576;BME280;2300;51.874;8.430;2023-02-14T08:50:00;102657.88;;;3.11;99.70
4576;BME280;2300;51.874;8.430;2023-02-14T08:52:26;102652.75;;;3.17;100.00
4576;BME280;2300;51.874;8.430;2023-02-14T08:54:53;102654.25;;;3.31;99.82
4576;BME280;2300;51.874;8.430;2023-02-14T08:57:20;102650.28;;;3.54;98.95
4576;BME280;2300;51.874;8.430;2023-02-14T08:59:48;102658.03;;;3.69;98.35
4576;BME280;2300;51.874;8.430;2023-02-14T09:02:15;102660.06;;;3.86;97.71
4576;BME280;2300;51.874;8.430;2023-02-14T09:04:42;102656.34;;;4.06;96.59
4576;BME280;2300;51.874;8.430;2023-02-14T09:07:10;102654.22;;;4.19;96.12
4576;BME280;2300;51.874;8.430;2023-02-14T09:09:36;102654.06;;;4.50;96.07
4576;BME280;2300;51.874;8.430;2023-02-14T09:12:03;102654.56;;;4.72;95.50
4576;BME280;2300;51.874;8.430;2023-02-14T09:14:35;102652.38;;;4.95;94.32
4576;BME280;2300;51.874;8.430;2023-02-14T09:17:02;102652.28;;;5.14;92.32
4576;BME280;2300;51.874;8.430;2023-02-14T09:19:30;102656.34;;;5.38;91.26
4576;BME280;2300;51.874;8.430;2023-02-14T09:21:56;102652.50;;;5.58;91.28
4576;BME280;2300;51.874;8.430;2023-02-14T09:24:23;102644.72;;;5.81;90.54
4576;BME280;2300;51.874;8.430;2023-02-14T09:26:49;102645.22;;;6.11;90.31
4576;BME280;2300;51.874;8.430;2023-02-14T09:29:16;102639.34;;;6.24;89.23
4576;BME280;2300;51.874;8.430;2023-02-14T09:31:44;102647.91;;;6.47;87.56
4576;BME280;2300;51.874;8.430;2023-02-14T09:34:10;102644.25;;;6.64;86.26
4576;BME280;2300;51.874;8.430;2023-02-14T09:36:37;102640.59;;;6.73;86.48
4576;BME280;2300;51.874;8.430;2023-02-14T09:39:21;102653.13;;;7.10;86.13
4576;BME280;2300;51.874;8.430;2023-02-14T09:42:03;102651.22;;;7.36;86.22
4576;BME280;2300;51.874;8.430;2023-02-14T09:44:36;102645.75;;;7.44;83.11
4576;BME280;2300;51.874;8.430;2023-02-14T09:47:16;102648.59;;;7.76;82.64
4576;BME280;2300;51.874;8.430;2023-02-14T09:49:44;102650.00;;;7.97;84.18
4576;BME280;2300;51.874;8.430;2023-02-14T09:52:13;102646.06;;;7.99;82.82
4576;BME280;2300;51.874;8.430;2023-02-14T09:54:42;102640.44;;;8.25;81.99
4576;BME280;2300;51.874;8.430;2023-02-14T09:57:19;102650.53;;;8.41;81.50
4576;BME280;2300;51.874;8.430;2023-02-14T09:59:51;102654.66;;;8.53;81.53
4576;BME280;2300;51.874;8.430;2023-02-14T10:02:38;102641.47;;;8.64;81.19
4576;BME280;2300;51.874;8.430;2023-02-14T10:05:11;102640.50;;;9.12;81.37
4576;BME280;2300;51.874;8.430;2023-02-14T10:07:54;102638.63;;;9.21;79.10
4576;BME280;2300;51.874;8.430;2023-02-14T10:10:25;102644.22;;;9.28;78.71
4576;BME280;2300;51.874;8.430;2023-02-14T10:12:56;102627.00;;;9.50;77.31
4576;BME280;2300;51.874;8.430;2023-02-14T10:15:27;102642.19;;;9.91;77.26
4576;BME280;2300;51.874;8.430;2023-02-14T10:18:00;102629.91;;;10.10;75.15
4576;BME280;2300;51.874;8.430;2023-02-14T10:20:30;102622.69;;;10.09;76.67
4576;BME280;2300;51.874;8.430;2023-02-14T10:23:03;102624.28;;;10.26;74.74
4576;BME280;2300;51.874;8.430;2023-02-14T10:25:38;102624.53;;;10.39;73.72
4576;BME280;2300;51.874;8.430;2023-02-14T10:28:10;102630.53;;;10.58;73.72
4576;BME280;2300;51.874;8.430;2023-02-14T10:30:40;102629.59;;;10.65;72.52
4576;BME280;2300;51.874;8.430;2023-02-14T10:33:15;102623.84;;;10.75;70.37
4576;BME280;2300;51.874;8.430;2023-02-14T10:35:46;102630.31;;;10.82;71.98
4576;BME280;2300;51.874;8.430;2023-02-14T10:38:24;102623.84;;;10.75;70.80
4576;BME280;2300;51.874;8.430;2023-02-14T10:41:22;102619.13;;;10.98;70.42
4576;BME280;2300;51.874;8.430;2023-02-14T10:44:00;102620.63;;;11.15;69.84
4576;BME280;2300;51.874;8.430;2023-02-14T10:46:40;102608.59;;;11.02;69.84
4576;BME280;2300;51.874;8.430;2023-02-14T10:49:24;102598.88;;;11.35;70.51
4576;BME280;2300;51.874;8.430;2023-02-14T10:51:55;102602.66;;;11.49;69.69
4576;BME280;2300;51.874;8.430;2023-02-14T10:54:27;102606.72;;;11.53;68.27
4576;BME280;2300;51.874;8.430;2023-02-14T10:56:59;102606.13;;;11.72;68.90
4576;BME280;2300;51.874;8.430;2023-02-14T10:59:32;102594.75;;;11.75;68.72
4576;BME280;2300;51.874;8.430;2023-02-14T11:01:59;102603.66;;;11.77;69.21
4576;BME280;2300;51.874;8.430;2023-02-14T11:04:28;102591.53;;;11.57;66.85
4576;BME280;2300;51.874;8.430;2023-02-14T11:06:56;102583.22;;;11.65;68.79
4576;BME280;2300;51.874;8.430;2023-02-14T11:09:23;102596.66;;;11.60;67.74
4576;BME280;2300;51.874;8.430;2023-02-14T11:11:52;102588.78;;;11.72;68.25
4576;BME280;2300;51.874;8.430;2023-02-14T11:14:22;102589.53;;;11.80;68.09
4576;BME280;2300;51.874;8.430;2023-02-14T11:16:49;102591.88;;;11.83;67.11
4576;BME280;2300;51.874;8.430;2023-02-14T11:19:22;102579.28;;;12.17;67.08
4576;BME280;2300;51.874;8.430;2023-02-14T11:21:52;102574.94;;;12.07;66.19
4576;BME280;2300;51.874;8.430;2023-02-14T11:24:25;102582.31;;;12.00;66.76
4576;BME280;2300;51.874;8.430;2023-02-14T11:26:54;102581.09;;;12.31;66.35
4576;BME280;2300;51.874;8.430;2023-02-14T11:29:25;102572.69;;;12.39;64.18
4576;BME280;2300;51.874;8.430;2023-02-14T11:31:52;102571.59;;;12.33;65.46
4576;BME280;2300;51.874;8.430;2023-02-14T11:34:27;102570.53;;;12.06;65.51
4576;BME280;2300;51.874;8.430;2023-02-14T11:36:58;102556.00;;;12.19;63.78
4576;BME280;2300;51.874;8.430;2023-02-14T11:39:29;102545.25;;;12.24;64.72
4576;BME280;2300;51.874;8.430;2023-02-14T11:41:58;102556.38;;;12.37;64.24
4576;BME280;2300;51.874;8.430;2023-02-14T11:44:26;102547.88;;;12.39;64.89
4576;BME280;2300;51.874;8.430;2023-02-14T11:46:55;102534.81;;;12.20;65.26
4576;BME280;2300;51.874;8.430;2023-02-14T11:49:25;102533.69;;;12.35;63.77
4576;BME280;2300;51.874;8.430;2023-02-14T11:51:54;102529.06;;;12.15;64.92
4576;BME280;2300;51.874;8.430;2023-02-14T11:54:29;102527.06;;;12.30;65.86
4576;BME280;2300;51.874;8.430;2023-02-14T11:57:02;102526.75;;;12.46;64.90
4576;BME280;2300;51.874;8.430;2023-02-14T11:59:31;102515.84;;;12.66;64.37
4576;BME280;2300;51.874;8.430;2023-02-14T12:02:03;102522.28;;;12.73;63.50
4576;BME280;2300;51.874;8.430;2023-02-14T12:04:40;102510.72;;;12.56;63.60
4576;BME280;2300;51.874;8.430;2023-02-14T12:07:15;102511.63;;;12.63;64.41
4576;BME280;2300;51.874;8.430;2023-02-14T12:09:45;102514.63;;;12.68;62.77
4576;BME280;2300;51.874;8.430;2023-02-14T12:12:17;102510.59;;;12.71;63.71
4576;BME280;2300;51.874;8.430;2023-02-14T12:14:44;102504.41;;;12.62;64.08
4576;BME280;2300;51.874;8.430;2023-02-14T12:17:20;102504.47;;;12.75;63.26
4576;BME280;2300;51.874;8.430;2023-02-14T12:19:50;102501.94;;;12.80;61.51
4576;BME280;2300;51.874;8.430;2023-02-14T12:22:20;102494.19;;;12.90;61.53
4576;BME280;2300;51.874;8.430;2023-02-14T12:24:53;102489.09;;;12.87;62.08
4576;BME280;2300;51.874;8.430;2023-02-14T12:27:25;102495.72;;;13.00;60.53
4576;BME280;2300;51.874;8.430;2023-02-14T12:29:58;102497.22;;;13.02;61.57
4576;BME280;2300;51.874;8.430;2023-02-14T12:32:29;102490.00;;;13.01;61.33
4576;BME280;2300;51.874;8.430;2023-02-14T12:35:00;102486.44;;;13.14;61.02
4576;BME280;2300;51.874;8.430;2023-02-14T12:37:38;102479.63;;;13.03;61.08
4576;BME280;2300;51.874;8.430;2023-02-14T12:40:19;102482.63;;;13.15;61.50
4576;BME280;2300;51.874;8.430;2023-02-14T12:42:56;102469.47;;;13.17;59.76
4576;BME280;2300;51.874;8.430;2023-02-14T12:45:32;102467.78;;;13.16;61.63
4576;BME280;2300;51.874;8.430;2023-02-14T12:48:19;102463.94;;;13.10;61.99
4576;BME280;2300;51.874;8.430;2023-02-14T12:50:52;102447.56;;;13.02;62.35
4576;BME280;2300;51.874;8.430;2023-02-14T12:53:49;102439.53;;;13.01;62.23
4576;BME280;2300;51.874;8.430;2023-02-14T12:56:31;102446.59;;;13.29;60.79
4576;BME280;2300;51.874;8.430;2023-02-14T12:59:12;102435.97;;;13.20;60.89
4576;BME280;2300;51.874;8.430;2023-02-14T13:01:58;102435.13;;;13.26;62.00
4576;BME280;2300;51.874;8.430;2023-02-14T13:04:46;102428.78;;;13.38;60.37
4576;BME280;2300;51.874;8.430;2023-02-14T13:07:20;102429.22;;;13.35;60.31
4576;BME280;2300;51.874;8.430;2023-02-14T13:09:56;102426.00;;;13.32;60.05
4576;BME280;2300;51.874;8.430;2023-02-14T13:12:32;102419.22;;;13.28;60.50
4576;BME280;2300;51.874;8.430;2023-02-14T13:15:12;102417.97;;;13.44;59.97
4576;BME280;2300;51.874;8.430;2023-02-14T13:17:48;102421.78;;;13.49;60.42
4576;BME280;2300;51.874;8.430;2023-02-14T13:20:40;102422.22;;;13.59;59.66
4576;BME280;2300;51.874;8.430;2023-02-14T13:23:13;102413.94;;;13.46;58.98
4576;BME280;2300;51.874;8.430;2023-02-14T13:25:44;102411.41;;;13.64;59.38
4576;BME280;2300;51.874;8.430;2023-02-14T13:28:17;102402.47;;;13.49;58.21
4576;BME280;2300;51.874;8.430;2023-02-14T13:30:44;102398.47;;;13.52;59.07
4576;BME280;2300;51.874;8.430;2023-02-14T13:33:24;102395.25;;;13.48;59.37
4576;BME280;2300;51.874;8.430;2023-02-14T13:35:53;102393.97;;;13.44;59.96